createdAt,value
2019-01-18T00:01:06.707Z,96760.22
2019-01-18T00:03:37.763Z,96761.14
2019-01-18T00:06:08.508Z,96761.75
2019-01-18T00:08:39.838Z,96771.14
2019-01-18T00:11:11.510Z,96773.34
2019-01-18T00:13:42.540Z,96779.53
2019-01-18T00:16:13.261Z,96798.08
2019-01-18T00:18:44.625Z,96789.30
2019-01-18T00:21:15.556Z,96805.27
2019-01-18T00:23:47.258Z,96808.54
2019-01-18T00:26:17.908Z,96800.53
2019-01-18T00:28:59.092Z,96783.78
2019-01-18T00:31:30.077Z,96784.66
2019-01-18T00:34:12.784Z,96777.05
2019-01-18T00:36:43.466Z,96777.58
2019-01-18T00:39:14.810Z,96768.85
2019-01-18T00:41:45.899Z,96777.70
2019-01-18T00:44:16.675Z,96776.50
2019-01-18T00:46:47.346Z,96780.92
2019-01-18T00:49:18.296Z,96772.92
2019-01-18T00:51:49.332Z,96773.16
2019-01-18T00:54:20.599Z,96779.83
2019-01-18T00:56:51.336Z,96797.47
2019-01-18T00:59:21.966Z,96801.90
2019-01-18T01:01:52.993Z,96812.34
2019-01-18T01:04:23.331Z,96814.02
2019-01-18T01:06:54.015Z,96818.00
2019-01-18T01:09:25.082Z,96820.80
2019-01-18T01:11:55.727Z,96823.87
2019-01-18T01:14:26.027Z,96829.52
2019-01-18T01:16:56.994Z,96825.33
2019-01-18T01:19:28.030Z,96820.81
2019-01-18T01:21:58.670Z,96822.30
2019-01-18T01:24:30.307Z,96822.29
2019-01-18T01:27:01.655Z,96819.20
2019-01-18T01:29:32.703Z,96833.00
2019-01-18T01:32:03.012Z,96840.30
2019-01-18T01:34:33.977Z,96836.95
2019-01-18T01:37:05.009Z,96835.55
2019-01-18T01:39:36.773Z,96837.02
2019-01-18T01:42:10.140Z,96843.95
2019-01-18T01:44:41.110Z,96850.34
2019-01-18T01:47:11.403Z,96853.41
2019-01-18T01:49:42.369Z,96859.59
2019-01-18T01:52:14.719Z,96858.88
2019-01-18T01:54:45.290Z,96855.34
2019-01-18T01:57:15.897Z,96861.51
2019-01-18T01:59:49.810Z,96861.84
2019-01-18T03:01:52.819Z,96923.78
2019-01-18T03:04:27.421Z,96932.85
2019-01-18T03:06:58.571Z,96936.50
2019-01-18T03:09:29.802Z,96938.92
2019-01-18T03:12:00.861Z,96946.61
2019-01-18T03:14:31.506Z,96947.67
2019-01-18T03:17:02.836Z,96948.64
2019-01-18T03:19:34.199Z,96953.19
2019-01-18T03:22:05.406Z,96955.02
2019-01-18T03:24:36.773Z,96953.59
2019-01-18T03:27:07.410Z,96963.97
2019-01-18T03:29:38.039Z,96959.68
2019-01-18T03:32:08.853Z,96970.17
2019-01-18T03:34:39.510Z,96980.83
2019-01-18T03:37:10.133Z,96975.84
2019-01-18T03:39:41.239Z,96984.10
2019-01-18T03:42:12.323Z,96984.50
2019-01-18T03:44:43.050Z,96985.50
2019-01-18T03:47:14.103Z,96991.78
2019-01-18T03:49:45.140Z,96996.55
2019-01-18T03:52:16.006Z,97005.67
2019-01-18T03:54:46.710Z,97006.52
2019-01-18T03:57:17.364Z,97014.05
2019-01-18T03:59:48.383Z,97014.52
2019-01-18T04:02:19.402Z,97015.94
2019-01-18T04:04:50.491Z,97019.91
2019-01-18T04:07:21.606Z,97020.63
2019-01-18T04:09:52.257Z,97029.37
2019-01-18T04:12:23.579Z,97023.98
2019-01-18T04:14:54.353Z,97024.81
2019-01-18T04:17:25.281Z,97014.75
2019-01-18T04:19:56.235Z,97018.16
2019-01-18T04:22:26.558Z,97018.44
2019-01-18T04:24:57.560Z,97024.53
2019-01-18T04:27:28.597Z,97018.77
2019-01-18T04:30:00.236Z,97023.45
2019-01-18T04:32:31.383Z,97023.85
2019-01-18T04:35:01.984Z,97024.42
2019-01-18T04:37:33.079Z,97023.21
2019-01-18T04:40:04.930Z,97029.63
2019-01-18T04:42:36.675Z,97032.07
2019-01-18T04:45:08.406Z,97033.69
2019-01-18T04:47:40.409Z,97041.86
2019-01-18T04:50:15.023Z,97041.86
2019-01-18T04:52:46.993Z,97047.14
2019-01-18T04:55:18.074Z,97051.52
2019-01-18T04:57:48.793Z,97054.09
2019-01-18T05:00:28.481Z,97049.45
2019-01-18T05:03:00.354Z,97053.14
2019-01-18T05:05:31.962Z,97058.91
2019-01-18T05:08:03.574Z,97059.75
2019-01-18T05:10:34.298Z,97063.95
2019-01-18T05:13:05.463Z,97055.59
2019-01-18T05:15:36.503Z,97062.02
2019-01-18T05:18:07.654Z,97067.47
2019-01-18T05:20:37.945Z,97065.87
2019-01-18T05:23:09.424Z,97073.41
2019-01-18T05:25:40.953Z,97074.91
2019-01-18T05:28:12.091Z,97075.30
2019-01-18T05:30:47.781Z,97079.63
2019-01-18T05:33:16.746Z,97074.63
2019-01-18T05:35:47.823Z,97081.53
2019-01-18T05:38:18.831Z,97082.63
2019-01-18T05:40:49.780Z,97089.17
2019-01-18T05:43:20.797Z,97091.21
2019-01-18T05:45:51.518Z,97091.98
2019-01-18T05:48:22.493Z,97093.38
2019-01-18T05:50:53.634Z,97094.45
2019-01-18T05:53:25.382Z,97101.51
2019-01-18T05:55:56.033Z,97106.94
2019-01-18T05:58:27.587Z,97108.19
2019-01-18T06:01:06.634Z,97115.38
2019-01-18T06:03:39.332Z,97114.47
2019-01-18T06:06:10.999Z,97126.84
2019-01-18T06:08:41.985Z,97127.45
2019-01-18T06:11:12.340Z,97127.91
2019-01-18T06:13:43.337Z,97133.95
2019-01-18T06:16:13.951Z,97132.24
2019-01-18T06:18:45.041Z,97133.44
2019-01-18T06:21:15.706Z,97142.53
2019-01-18T06:23:47.105Z,97137.52
2019-01-18T06:26:17.952Z,97140.73
2019-01-18T06:28:48.988Z,97142.64
2019-01-18T06:31:22.465Z,97146.75
2019-01-18T06:33:53.494Z,97151.20
2019-01-18T06:36:24.118Z,97148.27
2019-01-18T06:38:54.781Z,97158.64
2019-01-18T06:41:38.520Z,97155.77
2019-01-18T06:44:13.389Z,97155.01
2019-01-18T06:46:44.736Z,97162.23
2019-01-18T06:49:17.965Z,97159.74
2019-01-18T06:51:48.611Z,97157.89
2019-01-18T06:54:18.922Z,97155.61
2019-01-18T06:56:50.290Z,97156.70
2019-01-18T06:59:21.329Z,97156.22
2019-01-18T07:01:52.733Z,97159.06
2019-01-18T07:04:23.502Z,97167.25
2019-01-18T07:06:54.245Z,97171.56
2019-01-18T07:09:24.544Z,97176.65
2019-01-18T07:11:55.285Z,97185.30
2019-01-18T07:14:26.751Z,97181.44
2019-01-18T07:16:58.057Z,97183.33
2019-01-18T07:19:29.346Z,97185.42
2019-01-18T07:22:00.372Z,97188.92
2019-01-18T07:24:31.647Z,97188.27
2019-01-18T07:27:03.002Z,97190.48
2019-01-18T07:29:33.765Z,97195.66
2019-01-18T07:32:04.369Z,97185.81
2019-01-18T07:34:34.952Z,97188.01
2019-01-18T07:37:05.556Z,97191.08
2019-01-18T07:39:36.764Z,97193.23
2019-01-18T07:42:08.390Z,97198.73
2019-01-18T07:44:39.746Z,97200.51
2019-01-18T07:47:10.797Z,97199.61
2019-01-18T07:49:42.149Z,97197.88
2019-01-18T07:52:13.431Z,97198.06
2019-01-18T07:54:44.038Z,97201.79
2019-01-18T07:57:15.144Z,97201.89
2019-01-18T07:59:46.426Z,97210.30
2019-01-18T08:02:17.470Z,97219.22
2019-01-18T08:04:48.045Z,97224.13
2019-01-18T08:07:18.402Z,97220.33
2019-01-18T08:09:49.360Z,97218.73
2019-01-18T08:12:21.013Z,97224.56
2019-01-18T08:14:52.074Z,97226.07
2019-01-18T08:17:23.349Z,97225.53
2019-01-18T08:19:53.650Z,97229.20
2019-01-18T08:22:24.932Z,97229.43
2019-01-18T08:24:56.042Z,97233.16
2019-01-18T08:27:27.042Z,97234.31
2019-01-18T08:29:57.739Z,97233.22
2019-01-18T08:32:28.131Z,97232.48
2019-01-18T08:34:59.209Z,97238.50
2019-01-18T08:37:30.372Z,97246.08
2019-01-18T08:40:01.410Z,97246.72
2019-01-18T08:42:32.374Z,97248.69
2019-01-18T08:45:03.673Z,97241.67
2019-01-18T08:47:52.476Z,97245.56
2019-01-18T08:50:23.182Z,97249.98
2019-01-18T08:52:54.408Z,97254.98
2019-01-18T08:55:25.716Z,97257.70
2019-01-18T08:57:56.408Z,97253.16
2019-01-18T09:00:27.738Z,97256.66
2019-01-18T09:02:58.706Z,97247.63
2019-01-18T09:05:29.059Z,97247.03
2019-01-18T09:07:59.658Z,97242.17
2019-01-18T09:10:32.961Z,97252.60
2019-01-18T09:13:05.419Z,97253.76
2019-01-18T09:15:36.462Z,97254.23
2019-01-18T09:18:07.234Z,97252.66
2019-01-18T09:20:38.219Z,97251.26
2019-01-18T09:23:09.479Z,97252.48
2019-01-18T09:25:40.144Z,97252.66
2019-01-18T09:28:11.096Z,97253.48
2019-01-18T09:30:42.104Z,97254.86
2019-01-18T09:33:13.236Z,97263.40
2019-01-18T09:35:45.016Z,97261.11
2019-01-18T09:38:18.157Z,97253.84
2019-01-18T09:40:49.128Z,97254.28
2019-01-18T09:43:26.731Z,97256.15
2019-01-18T09:45:57.785Z,97256.33
2019-01-18T09:48:28.813Z,97253.11
2019-01-18T09:50:59.784Z,97257.75
2019-01-18T09:53:30.779Z,97252.97
2019-01-18T09:56:02.144Z,97250.05
2019-01-18T09:58:33.551Z,97248.86
2019-01-18T10:01:03.950Z,97239.95
2019-01-18T10:03:34.250Z,97241.53
2019-01-18T10:06:05.139Z,97232.77
2019-01-18T10:08:35.755Z,97226.00
2019-01-18T10:11:06.343Z,97226.81
2019-01-18T10:13:37.149Z,97227.72
2019-01-18T10:16:07.851Z,97220.27
2019-01-18T10:18:38.830Z,97220.34
2019-01-18T10:21:09.161Z,97220.21
2019-01-18T10:23:39.772Z,97218.11
2019-01-18T10:26:10.371Z,97212.50
2019-01-18T10:28:40.973Z,97214.58
2019-01-18T10:31:32.131Z,97200.45
2019-01-18T10:34:02.469Z,97202.16
2019-01-18T10:36:33.516Z,97194.73
2019-01-18T10:39:06.518Z,97198.45
2019-01-18T10:41:37.489Z,97195.00
2019-01-18T10:44:08.077Z,97192.40
2019-01-18T10:46:39.837Z,97193.86
2019-01-18T10:49:10.508Z,97188.08
2019-01-18T10:51:41.127Z,97182.69
2019-01-18T10:54:12.453Z,97178.50
2019-01-18T10:56:43.141Z,97178.96
2019-01-18T10:59:14.211Z,97175.80
2019-01-18T11:01:44.522Z,97176.36
2019-01-18T11:04:15.175Z,97175.78
2019-01-18T11:06:46.525Z,97170.20
2019-01-18T11:09:18.263Z,97168.71
2019-01-18T11:11:48.568Z,97164.78
2019-01-18T11:14:20.542Z,97160.13
2019-01-18T11:16:50.882Z,97157.81
2019-01-18T11:19:21.817Z,97154.80
2019-01-18T11:21:52.457Z,97158.20
2019-01-18T11:24:23.101Z,97150.36
2019-01-18T11:26:53.725Z,97153.01
2019-01-18T11:29:25.013Z,97143.59
2019-01-18T11:31:56.316Z,97146.92
2019-01-18T11:34:28.329Z,97138.31
2019-01-18T11:36:59.324Z,97135.38
2019-01-18T11:39:30.674Z,97125.84
2019-01-18T11:42:05.226Z,97127.80
2019-01-18T11:44:34.370Z,97128.89
2019-01-18T11:47:05.038Z,97127.98
2019-01-18T11:49:35.664Z,97129.11
2019-01-18T11:52:07.189Z,97122.70
2019-01-18T11:54:38.143Z,97120.53
2019-01-18T11:57:09.389Z,97115.68
2019-01-18T11:59:40.434Z,97115.93
2019-01-18T12:02:15.095Z,97112.27
2019-01-18T12:04:46.200Z,97107.09
2019-01-18T12:07:17.866Z,97102.95
2019-01-18T12:09:48.480Z,97098.37
2019-01-18T12:12:19.536Z,97097.80
2019-01-18T12:14:50.665Z,97096.59
2019-01-18T12:17:21.711Z,97088.09
2019-01-18T12:19:52.567Z,97085.11
2019-01-18T12:22:23.306Z,97082.63
2019-01-18T12:24:54.216Z,97082.08
2019-01-18T12:27:25.563Z,97075.31
2019-01-18T12:29:56.752Z,97079.95
2019-01-18T12:32:28.868Z,97074.91
2019-01-18T12:34:59.801Z,97069.14
2019-01-18T12:37:30.447Z,97064.69
2019-01-18T12:40:01.063Z,97055.60
2019-01-18T12:42:40.377Z,97066.25
2019-01-18T12:45:17.358Z,97069.56
2019-01-18T12:47:56.628Z,97065.67
2019-01-18T12:50:39.818Z,97059.64
2019-01-18T12:54:07.996Z,97060.26
2019-01-18T12:56:39.348Z,97064.71
2019-01-18T12:59:15.547Z,97054.99
2019-01-18T13:01:46.572Z,97063.23
2019-01-18T13:04:17.632Z,97060.28
2019-01-18T13:06:48.947Z,97062.22
2019-01-18T13:09:19.919Z,97070.55
2019-01-18T13:11:51.253Z,97068.77
2019-01-18T13:14:29.451Z,97067.88
2019-01-18T13:17:00.512Z,97061.20
2019-01-18T13:19:31.246Z,97068.66
2019-01-18T13:22:16.112Z,97065.45
2019-01-18T13:24:50.243Z,97070.44
2019-01-18T13:27:20.964Z,97068.80
2019-01-18T13:29:56.269Z,97072.06
2019-01-18T13:32:49.981Z,97068.47
2019-01-18T13:35:33.359Z,97070.56
2019-01-18T13:38:04.873Z,97065.69
2019-01-18T13:40:54.748Z,97057.95
2019-01-18T13:43:26.392Z,97053.63
2019-01-18T13:45:58.350Z,97056.94
2019-01-18T13:48:38.631Z,97060.53
2019-01-18T13:51:08.960Z,97060.04
2019-01-18T13:53:39.774Z,97057.17
2019-01-18T13:56:11.261Z,97054.77
2019-01-18T13:58:42.632Z,97052.02
2019-01-18T14:01:13.035Z,97063.97
2019-01-18T14:04:05.838Z,97058.21
2019-01-18T14:06:36.879Z,97060.95
2019-01-18T14:09:10.572Z,97064.82
2019-01-18T14:11:41.279Z,97058.75
2019-01-18T14:14:20.549Z,97061.47
2019-01-18T14:16:52.183Z,97052.17
2019-01-18T14:19:23.220Z,97052.82
2019-01-18T14:21:54.358Z,97054.98
2019-01-18T14:24:29.776Z,97067.40
2019-01-18T14:27:04.885Z,97060.10
2019-01-18T14:29:36.066Z,97065.70
2019-01-18T14:32:06.749Z,97063.67
2019-01-18T14:34:38.120Z,97069.59
2019-01-18T14:37:09.741Z,97065.76
2019-01-18T14:39:40.762Z,97060.76
2019-01-18T14:42:12.469Z,97066.59
2019-01-18T14:44:43.121Z,97065.73
2019-01-18T14:47:16.558Z,97061.69
2019-01-18T14:49:48.228Z,97058.64
2019-01-18T14:52:19.587Z,97056.06
2019-01-18T14:54:51.894Z,97057.91
2019-01-18T14:57:23.220Z,97055.84
2019-01-18T14:59:54.997Z,97061.44
2019-01-18T15:02:26.806Z,97065.58
2019-01-18T15:04:58.446Z,97064.94
2019-01-18T15:07:29.570Z,97057.41
2019-01-18T15:10:05.010Z,97064.98
2019-01-18T15:12:39.595Z,97061.38
2019-01-18T15:15:47.179Z,97065.08
2019-01-18T15:18:38.287Z,97063.02
2019-01-18T15:21:41.474Z,97069.48
2019-01-18T15:24:11.824Z,97063.39
2019-01-18T15:26:43.882Z,97067.20
2019-01-18T15:29:50.185Z,97070.42
2019-01-18T15:32:29.364Z,97067.03
2019-01-18T15:35:00.222Z,97068.50
2019-01-18T15:37:31.789Z,97067.58
2019-01-18T15:40:26.050Z,97079.45
2019-01-18T15:42:58.850Z,97075.03
2019-01-18T15:45:52.455Z,97071.66
2019-01-18T15:48:23.699Z,97070.23
2019-01-18T15:51:11.328Z,97062.20
2019-01-18T15:53:41.926Z,97064.83
2019-01-18T15:56:12.656Z,97060.53
2019-01-18T15:58:44.830Z,97064.39
2019-01-18T16:01:24.147Z,97062.33
2019-01-18T16:03:58.026Z,97062.01
2019-01-18T16:06:36.505Z,97059.09
2019-01-18T16:09:10.140Z,97054.11
2019-01-18T16:11:41.515Z,97051.13
2019-01-18T16:14:13.915Z,97048.86
2019-01-18T16:17:03.301Z,97046.19
2019-01-18T16:19:40.173Z,97044.13
2019-01-18T16:22:18.432Z,97046.94
2019-01-18T16:24:59.244Z,97047.84
2019-01-18T16:27:31.044Z,97047.33
2019-01-18T16:30:03.939Z,97046.61
2019-01-18T16:32:45.449Z,97044.59
2019-01-18T16:35:37.197Z,97047.83
2019-01-18T16:38:17.011Z,97044.27
2019-01-18T16:40:56.754Z,97044.27
2019-01-18T16:43:38.474Z,97042.53
2019-01-18T16:46:09.549Z,97039.89
2019-01-18T16:48:40.702Z,97039.63
2019-01-18T16:51:15.380Z,97035.55
2019-01-18T16:53:50.265Z,97033.49
2019-01-18T16:56:26.890Z,97033.56
2019-01-18T16:59:07.743Z,97036.30
2019-01-18T17:01:56.796Z,97035.68
2019-01-18T17:04:28.289Z,97032.75
2019-01-18T17:07:02.466Z,97026.41
2019-01-18T17:09:33.847Z,97025.30
2019-01-18T17:12:04.915Z,97022.91
2019-01-18T17:14:37.345Z,97022.78
2019-01-18T17:17:08.916Z,97017.39
2019-01-18T17:19:39.726Z,97021.81
2019-01-18T17:22:12.320Z,97020.09
2019-01-18T17:24:43.394Z,97022.50
2019-01-18T17:27:14.402Z,97013.87
2019-01-18T17:29:46.102Z,97019.00
2019-01-18T17:32:17.052Z,97021.80
2019-01-18T17:34:54.752Z,97016.92
2019-01-18T17:37:36.711Z,97017.30
2019-01-18T17:40:50.735Z,97021.69
2019-01-18T17:44:35.012Z,97015.41
2019-01-18T17:47:51.748Z,97023.36
2019-01-18T17:51:12.704Z,97024.27
2019-01-18T17:54:32.201Z,97022.05
2019-01-18T17:57:53.540Z,97021.83
2019-01-18T18:01:13.305Z,97017.88
2019-01-18T18:04:41.280Z,97019.16
2019-01-18T18:07:59.289Z,97024.22
2019-01-18T18:11:44.933Z,97023.19
2019-01-18T18:15:26.273Z,97019.39
2019-01-18T18:18:10.169Z,97018.31
2019-01-18T18:21:45.701Z,97020.75
2019-01-18T18:25:02.410Z,97014.58
2019-01-18T18:28:04.152Z,97016.00
2019-01-18T18:31:13.894Z,97015.94
2019-01-18T18:34:37.113Z,97013.48
2019-01-18T18:38:08.468Z,97012.23
2019-01-18T18:41:27.717Z,97017.58
2019-01-18T18:44:55.870Z,97017.17
2019-01-18T18:48:50.916Z,97016.16
2019-01-18T18:52:18.875Z,97016.84
2019-01-18T18:55:47.682Z,97014.56
2019-01-18T18:59:42.352Z,97021.36
2019-01-18T19:02:59.805Z,97017.14
2019-01-18T19:06:25.295Z,97013.83
2019-01-18T19:09:40.403Z,97009.61
2019-01-18T19:12:54.834Z,97005.65
2019-01-18T19:16:23.572Z,96996.95
2019-01-18T19:20:22.132Z,96997.95
2019-01-18T19:23:58.851Z,96992.89
2019-01-18T19:27:14.294Z,96995.41
2019-01-18T19:30:54.370Z,96996.46
2019-01-18T19:34:09.938Z,96987.69
2019-01-18T19:37:45.523Z,96988.70
2019-01-18T19:41:14.696Z,96987.62
2019-01-18T19:44:42.156Z,96980.94
2019-01-18T19:48:01.643Z,96978.34
2019-01-18T19:51:44.013Z,96976.95
2019-01-18T19:54:27.937Z,96977.03
2019-01-18T19:57:39.763Z,96973.45
2019-01-18T20:00:59.163Z,96983.25
2019-01-18T20:04:20.481Z,96978.98
2019-01-18T20:07:32.529Z,96978.66
2019-01-18T20:11:22.424Z,96984.55
2019-01-18T20:14:55.349Z,96981.28
2019-01-18T20:18:40.241Z,96984.47
2019-01-18T20:22:22.242Z,96977.55
2019-01-18T20:25:45.584Z,96970.25
2019-01-18T20:29:46.663Z,96968.04
2019-01-18T20:33:32.415Z,96973.86
2019-01-18T20:36:36.150Z,96973.42
2019-01-18T20:40:06.405Z,96966.33
2019-01-18T20:43:22.590Z,96960.16
2019-01-18T20:46:41.536Z,96966.20
2019-01-18T20:49:59.779Z,96965.86
2019-01-18T20:53:14.976Z,96963.86
2019-01-18T20:56:16.428Z,96967.97
2019-01-18T20:59:09.363Z,96970.83
2019-01-18T21:02:26.966Z,96966.10
2019-01-18T21:05:47.464Z,96973.89
2019-01-18T21:08:47.848Z,96964.07
2019-01-18T21:12:19.617Z,96960.04
2019-01-18T21:15:17.785Z,96957.58
2019-01-18T21:18:41.570Z,96951.40
2019-01-18T21:22:30.015Z,96950.14
2019-01-18T21:26:08.671Z,96949.95
2019-01-18T21:29:48.521Z,96948.30
2019-01-18T21:33:15.929Z,96943.92
2019-01-18T21:37:00.316Z,96940.45
2019-01-18T21:40:17.455Z,96936.58
2019-01-18T21:43:19.909Z,96923.04
2019-01-18T21:46:57.054Z,96930.45
2019-01-18T21:50:09.032Z,96932.95
2019-01-18T21:53:28.953Z,96928.77
2019-01-18T21:57:04.865Z,96936.21
2019-01-18T22:00:37.545Z,96929.19
2019-01-18T22:03:56.106Z,96933.81
2019-01-18T22:07:01.546Z,96934.41
2019-01-18T22:09:52.343Z,96931.15
2019-01-18T22:13:27.424Z,96938.05
2019-01-18T22:17:25.703Z,96936.20
2019-01-18T22:21:02.487Z,96941.34
2019-01-18T22:24:16.422Z,96940.53
2019-01-18T22:27:16.547Z,96939.33
2019-01-18T22:30:25.377Z,96934.94
2019-01-18T22:33:25.992Z,96940.19
2019-01-18T22:36:58.382Z,96946.70
2019-01-18T22:40:23.515Z,96943.06
2019-01-18T22:44:07.680Z,96947.50
2019-01-18T22:47:45.360Z,96941.03
2019-01-18T22:50:41.873Z,96942.26
2019-01-18T22:53:54.139Z,96944.55
2019-01-18T22:57:20.496Z,96941.17
2019-01-18T23:01:02.092Z,96939.55
2019-01-18T23:04:38.340Z,96939.57
2019-01-18T23:08:17.002Z,96939.04
2019-01-18T23:11:39.174Z,96933.80
2019-01-18T23:15:19.212Z,96931.40
2019-01-18T23:18:12.083Z,96927.92
2019-01-18T23:21:16.502Z,96927.78
2019-01-18T23:24:09.336Z,96919.11
2019-01-18T23:27:06.757Z,96919.30
2019-01-18T23:30:28.132Z,96920.42
2019-01-18T23:34:16.265Z,96916.47
2019-01-18T23:37:31.625Z,96913.63
2019-01-18T23:41:02.661Z,96912.83
2019-01-18T23:44:14.674Z,96911.08
2019-01-18T23:47:20.982Z,96905.60
2019-01-18T23:50:41.589Z,96904.73
2019-01-18T23:54:15.924Z,96907.91
2019-01-18T23:58:01.229Z,96901.37
